createdAt,value
2018-12-01T00:00:11.191Z,7.70
2018-12-01T00:02:39.769Z,7.70
2018-12-01T00:05:08.449Z,7.80
2018-12-01T00:07:36.995Z,7.80
2018-12-01T00:10:06.275Z,7.70
2018-12-01T00:12:34.856Z,7.80
2018-12-01T00:15:03.520Z,7.70
2018-12-01T00:17:32.124Z,7.70
2018-12-01T00:20:00.711Z,7.60
2018-12-01T00:22:29.280Z,7.60
2018-12-01T00:24:57.890Z,7.60
2018-12-01T00:27:26.463Z,7.50
2018-12-01T00:29:55.039Z,7.50
2018-12-01T00:32:23.620Z,7.50
2018-12-01T00:34:52.225Z,7.40
2018-12-01T00:37:20.824Z,7.40
2018-12-01T00:39:49.397Z,7.50
2018-12-01T00:42:18.013Z,7.50
2018-12-01T00:44:46.668Z,7.50
2018-12-01T00:47:15.257Z,7.40
2018-12-01T00:49:43.893Z,7.40
2018-12-01T00:52:12.503Z,7.30
2018-12-01T00:54:41.084Z,7.30
2018-12-01T00:57:09.683Z,7.20
2018-12-01T00:59:38.322Z,7.10
2018-12-01T01:02:06.987Z,7.00
2018-12-01T01:04:35.542Z,7.00
2018-12-01T01:07:04.173Z,6.90
2018-12-01T01:09:32.730Z,6.90
2018-12-01T01:12:01.308Z,6.90
2018-12-01T01:14:29.868Z,6.80
2018-12-01T01:16:58.460Z,6.70
2018-12-01T01:19:27.037Z,6.70
2018-12-01T01:21:55.713Z,6.70
2018-12-01T01:24:24.373Z,6.70
2018-12-01T01:26:52.948Z,6.70
2018-12-01T01:29:21.530Z,6.70
2018-12-01T01:31:50.190Z,6.60
2018-12-01T01:34:18.784Z,6.60
2018-12-01T01:36:47.342Z,6.60
2018-12-01T01:39:15.914Z,6.60
2018-12-01T01:41:44.496Z,6.60
2018-12-01T01:44:13.084Z,6.70
2018-12-01T01:46:41.659Z,6.80
2018-12-01T01:49:10.236Z,6.80
2018-12-01T01:51:38.807Z,6.90
2018-12-01T01:54:07.340Z,7.00
2018-12-01T01:56:35.926Z,7.00
2018-12-01T01:59:04.596Z,7.10
2018-12-01T02:01:33.301Z,7.20
2018-12-01T02:04:01.885Z,7.30
2018-12-01T02:06:30.478Z,7.30
2018-12-01T02:08:59.044Z,7.40
2018-12-01T02:11:27.628Z,7.40
2018-12-01T02:13:56.176Z,7.40
2018-12-01T02:16:24.768Z,7.40
2018-12-01T02:18:53.312Z,7.40
2018-12-01T02:21:22.079Z,7.50
2018-12-01T02:23:50.658Z,7.50
2018-12-01T02:26:19.240Z,7.50
2018-12-01T02:28:47.845Z,7.50
2018-12-01T02:31:16.419Z,7.50
2018-12-01T02:33:44.996Z,7.50
2018-12-01T02:36:13.575Z,7.50
2018-12-01T02:38:42.199Z,7.50
2018-12-01T02:41:10.831Z,7.50
2018-12-01T02:43:39.416Z,7.50
2018-12-01T02:46:19.318Z,7.40
2018-12-01T02:48:47.902Z,7.40
2018-12-01T02:51:16.456Z,7.30
2018-12-01T02:53:45.033Z,7.40
2018-12-01T02:56:13.656Z,7.30
2018-12-01T02:58:42.236Z,7.30
2018-12-01T03:01:10.793Z,7.20
2018-12-01T03:03:39.481Z,7.20
2018-12-01T03:06:08.045Z,7.10
2018-12-01T03:08:36.630Z,7.00
2018-12-01T03:11:05.215Z,7.00
2018-12-01T03:13:33.807Z,6.90
2018-12-01T03:16:02.388Z,6.90
2018-12-01T03:18:31.018Z,6.80
2018-12-01T03:20:59.636Z,6.80
2018-12-01T03:23:28.216Z,6.80
2018-12-01T03:25:56.903Z,6.80
2018-12-01T03:28:25.506Z,6.80
2018-12-01T03:30:54.113Z,6.80
2018-12-01T03:33:22.775Z,6.80
2018-12-01T03:35:51.356Z,6.80
2018-12-01T03:38:19.936Z,6.80
2018-12-01T03:40:48.530Z,6.80
2018-12-01T03:43:17.231Z,6.90
2018-12-01T03:45:45.847Z,6.90
2018-12-01T03:48:14.464Z,6.80
2018-12-01T03:50:43.032Z,6.80
2018-12-01T03:53:12.584Z,6.80
2018-12-01T03:55:41.161Z,6.80
2018-12-01T03:58:09.756Z,6.80
2018-12-01T04:00:38.308Z,6.80
2018-12-01T04:03:07.467Z,6.80
2018-12-01T04:05:36.072Z,6.80
2018-12-01T04:08:04.730Z,6.80
2018-12-01T04:10:33.297Z,6.80
2018-12-01T04:13:01.924Z,6.90
2018-12-01T04:15:30.537Z,6.90
2018-12-01T04:17:59.147Z,6.80
2018-12-01T04:20:27.744Z,6.90
2018-12-01T04:22:56.324Z,6.90
2018-12-01T04:25:25.021Z,6.90
2018-12-01T04:27:53.620Z,6.90
2018-12-01T04:30:23.324Z,6.90
2018-12-01T04:32:51.970Z,6.90
2018-12-01T04:35:22.433Z,6.90
2018-12-01T04:37:52.132Z,6.90
2018-12-01T04:40:20.864Z,6.90
2018-12-01T04:42:49.740Z,6.80
2018-12-01T04:45:18.642Z,6.70
2018-12-01T04:47:47.332Z,6.70
2018-12-01T04:50:16.985Z,6.70
2018-12-01T04:52:46.410Z,6.60
2018-12-01T04:55:16.900Z,6.60
2018-12-01T04:57:45.519Z,6.60
2018-12-01T05:00:19.039Z,6.60
2018-12-01T05:02:47.687Z,6.50
2018-12-01T05:05:20.367Z,6.50
2018-12-01T05:07:49.153Z,6.50
2018-12-01T05:10:18.628Z,6.40
2018-12-01T05:12:47.202Z,6.30
2018-12-01T05:15:17.377Z,6.30
2018-12-01T05:17:46.342Z,6.20
2018-12-01T05:20:22.098Z,6.20
2018-12-01T05:22:51.316Z,6.20
2018-12-01T05:25:19.950Z,6.10
2018-12-01T05:27:48.605Z,6.10
2018-12-01T05:30:17.226Z,6.00
2018-12-01T05:32:45.821Z,6.00
2018-12-01T05:35:19.592Z,6.00
2018-12-01T05:37:48.204Z,6.00
2018-12-01T05:40:16.800Z,6.00
2018-12-01T05:42:45.391Z,5.90
2018-12-01T05:45:18.028Z,5.90
2018-12-01T05:47:46.626Z,5.80
2018-12-01T05:50:20.348Z,5.80
2018-12-01T05:52:48.928Z,5.80
2018-12-01T05:55:17.483Z,5.70
2018-12-01T05:57:46.071Z,5.70
2018-12-01T06:00:15.697Z,5.70
2018-12-01T06:02:44.328Z,5.70
2018-12-01T06:05:12.903Z,5.70
2018-12-01T06:07:42.411Z,5.60
2018-12-01T06:10:15.086Z,5.60
2018-12-01T06:12:43.700Z,5.60
2018-12-01T06:15:14.422Z,5.70
2018-12-01T06:17:43.315Z,5.70
2018-12-01T06:20:13.192Z,5.70
2018-12-01T06:22:41.796Z,5.70
2018-12-01T06:25:12.740Z,5.70
2018-12-01T06:27:41.402Z,5.70
2018-12-01T06:30:17.109Z,5.70
2018-12-01T06:32:46.234Z,5.70
2018-12-01T06:35:14.895Z,5.60
2018-12-01T06:37:43.519Z,5.70
2018-12-01T06:40:14.169Z,5.60
2018-12-01T06:42:42.799Z,5.60
2018-12-01T06:45:12.555Z,5.70
2018-12-01T06:47:41.187Z,5.70
2018-12-01T06:50:12.901Z,5.70
2018-12-01T06:52:41.495Z,5.70
2018-12-01T06:55:11.308Z,5.80
2018-12-01T06:57:39.987Z,5.80
2018-12-01T07:00:18.456Z,5.80
2018-12-01T07:02:47.616Z,5.90
2018-12-01T07:05:16.904Z,5.90
2018-12-01T07:07:45.461Z,5.90
2018-12-01T07:10:15.086Z,5.90
2018-12-01T07:12:45.883Z,5.90
2018-12-01T07:15:17.080Z,6.00
2018-12-01T07:17:45.624Z,6.00
2018-12-01T07:20:14.243Z,6.00
2018-12-01T07:22:42.828Z,6.00
2018-12-01T07:25:11.426Z,6.10
2018-12-01T07:27:40.120Z,6.20
2018-12-01T07:30:12.131Z,6.20
2018-12-01T07:32:41.151Z,6.20
2018-12-01T07:35:10.013Z,6.30
2018-12-01T07:37:39.150Z,6.30
2018-12-01T07:40:14.452Z,6.40
2018-12-01T07:42:43.051Z,6.40
2018-12-01T07:45:12.856Z,6.40
2018-12-01T07:47:41.464Z,6.50
2018-12-01T07:50:11.763Z,6.50
2018-12-01T07:52:40.362Z,6.50
2018-12-01T07:55:08.970Z,6.50
2018-12-01T07:57:37.608Z,6.50
2018-12-01T08:00:12.388Z,6.50
2018-12-01T08:02:41.323Z,6.50
2018-12-01T08:05:10.842Z,6.50
2018-12-01T08:07:39.433Z,6.50
2018-12-01T08:10:12.149Z,6.50
2018-12-01T08:12:40.737Z,6.50
2018-12-01T08:15:15.751Z,6.60
2018-12-01T08:17:44.730Z,6.60
2018-12-01T08:20:14.168Z,6.60
2018-12-01T08:22:42.774Z,6.60
2018-12-01T08:25:26.869Z,6.60
2018-12-01T08:28:02.692Z,6.60
2018-12-01T08:30:32.737Z,6.70
2018-12-01T08:33:01.322Z,6.70
2018-12-01T08:35:30.512Z,6.80
2018-12-01T08:37:59.100Z,6.80
2018-12-01T08:40:28.934Z,6.80
2018-12-01T08:42:57.511Z,7.00
2018-12-01T08:45:26.186Z,7.00
2018-12-01T08:47:54.756Z,7.10
2018-12-01T08:50:24.088Z,7.20
2018-12-01T08:52:53.379Z,7.20
2018-12-01T08:55:23.924Z,7.30
2018-12-01T08:57:53.108Z,7.40
2018-12-01T09:00:26.891Z,7.50
2018-12-01T09:02:57.007Z,7.60
2018-12-01T09:05:25.587Z,7.70
2018-12-01T09:07:54.207Z,7.80
2018-12-01T09:10:22.775Z,7.80
2018-12-01T09:12:51.408Z,7.90
2018-12-01T09:15:19.964Z,7.90
2018-12-01T09:17:48.561Z,8.00
2018-12-01T09:20:17.180Z,8.10
2018-12-01T09:22:46.629Z,8.00
2018-12-01T09:25:16.232Z,8.00
2018-12-01T09:27:44.996Z,8.10
2018-12-01T09:30:19.852Z,8.00
2018-12-01T09:32:48.624Z,7.90
2018-12-01T09:35:17.246Z,7.80
2018-12-01T09:37:45.883Z,7.80
2018-12-01T09:40:15.676Z,7.80
2018-12-01T09:42:44.346Z,7.90
2018-12-01T09:45:14.100Z,7.80
2018-12-01T09:47:43.768Z,7.80
2018-12-01T09:50:14.261Z,8.10
2018-12-01T09:52:42.996Z,8.30
2018-12-01T09:55:15.875Z,8.70
2018-12-01T09:57:45.217Z,9.00
2018-12-01T10:00:15.988Z,9.10
2018-12-01T10:02:45.169Z,9.20
2018-12-01T10:05:16.081Z,9.10
2018-12-01T10:07:44.668Z,9.00
2018-12-01T10:10:16.139Z,8.80
2018-12-01T10:12:45.307Z,8.60
2018-12-01T10:15:16.875Z,8.60
2018-12-01T10:17:45.502Z,8.70
2018-12-01T10:20:22.411Z,8.90
2018-12-01T10:22:51.048Z,9.30
2018-12-01T10:25:19.712Z,9.70
2018-12-01T10:27:48.449Z,10.00
2018-12-01T10:30:18.127Z,9.70
2018-12-01T10:32:46.963Z,9.50
2018-12-01T10:35:17.596Z,9.30
2018-12-01T10:37:47.786Z,9.40
2018-12-01T10:40:16.489Z,9.50
2018-12-01T10:42:45.114Z,9.40
2018-12-01T10:45:19.192Z,9.40
2018-12-01T10:47:47.848Z,9.10
2018-12-01T10:50:17.531Z,9.20
2018-12-01T10:52:46.756Z,9.40
2018-12-01T10:55:33.428Z,9.50
2018-12-01T10:58:07.958Z,9.40
2018-12-01T11:00:41.985Z,9.30
2018-12-01T11:03:15.954Z,9.30
2018-12-01T11:05:44.870Z,9.20
2018-12-01T11:08:14.685Z,9.20
2018-12-01T11:10:43.524Z,9.10
2018-12-01T11:13:12.086Z,9.10
2018-12-01T11:15:40.743Z,9.20
2018-12-01T11:18:09.356Z,9.30
2018-12-01T11:20:38.246Z,9.50
2018-12-01T11:23:07.197Z,10.00
2018-12-01T11:25:35.797Z,10.20
2018-12-01T11:28:04.407Z,10.20
2018-12-01T11:30:33.000Z,10.20
2018-12-01T11:33:01.604Z,10.40
2018-12-01T11:35:30.260Z,10.60
2018-12-01T11:37:59.472Z,10.80
2018-12-01T11:40:28.067Z,10.70
2018-12-01T11:42:56.652Z,10.50
2018-12-01T11:45:25.261Z,10.60
2018-12-01T11:47:54.143Z,10.40
2018-12-01T11:50:22.713Z,10.40
2018-12-01T11:52:51.545Z,10.30
2018-12-01T11:55:23.220Z,10.30
2018-12-01T11:57:52.614Z,10.20
2018-12-01T12:00:22.396Z,10.20
2018-12-01T12:02:51.073Z,10.20
2018-12-01T12:05:19.700Z,10.10
2018-12-01T12:07:59.396Z,10.10
2018-12-01T12:10:27.988Z,10.00
2018-12-01T12:12:56.544Z,9.90
2018-12-01T12:15:25.926Z,9.80
2018-12-01T12:17:59.897Z,9.80
2018-12-01T12:20:28.926Z,9.80
2018-12-01T12:22:57.503Z,9.90
2018-12-01T12:25:26.281Z,9.90
2018-12-01T12:27:54.883Z,9.90
2018-12-01T12:30:25.973Z,10.00
2018-12-01T12:32:52.204Z,10.00
2018-12-01T12:35:20.835Z,9.90
2018-12-01T12:37:49.388Z,9.90
2018-12-01T12:40:21.148Z,9.90
2018-12-01T12:42:49.846Z,9.90
2018-12-01T12:45:18.537Z,9.90
2018-12-01T12:47:47.099Z,9.90
2018-12-01T12:50:17.461Z,9.90
2018-12-01T12:52:47.057Z,9.90
2018-12-01T12:55:17.614Z,10.00
2018-12-01T12:57:46.205Z,10.00
2018-12-01T13:00:15.804Z,10.00
2018-12-01T13:02:46.502Z,10.00
2018-12-01T13:05:20.523Z,10.00
2018-12-01T13:07:49.128Z,9.90
2018-12-01T13:10:19.828Z,10.00
2018-12-01T13:12:48.418Z,10.00
2018-12-01T13:15:17.253Z,10.00
2018-12-01T13:17:46.284Z,9.90
2018-12-01T13:20:19.588Z,9.90
2018-12-01T13:22:49.417Z,9.90
2018-12-01T13:25:17.988Z,9.90
2018-12-01T13:28:49.833Z,9.80
2018-12-01T13:31:18.591Z,9.90
2018-12-01T13:33:47.157Z,9.80
2018-12-01T13:36:15.843Z,9.80
2018-12-01T13:38:44.460Z,9.80
2018-12-01T13:41:13.132Z,9.80
2018-12-01T13:43:41.897Z,9.80
2018-12-01T13:46:10.582Z,9.80
2018-12-01T13:48:39.164Z,9.80
2018-12-01T13:51:07.797Z,9.80
2018-12-01T13:53:36.402Z,9.80
2018-12-01T13:56:05.187Z,9.80
2018-12-01T13:58:33.766Z,9.70
2018-12-01T14:01:02.429Z,9.70
2018-12-01T14:03:31.072Z,9.70
2018-12-01T14:05:59.664Z,9.70
2018-12-01T14:08:28.329Z,9.60
2018-12-01T14:10:56.945Z,9.70
2018-12-01T14:13:25.545Z,9.60
2018-12-01T14:15:54.120Z,9.60
2018-12-01T14:18:22.755Z,9.60
2018-12-01T14:20:51.484Z,9.50
2018-12-01T14:23:20.188Z,9.60
2018-12-01T14:25:48.803Z,9.50
2018-12-01T14:28:17.437Z,9.50
2018-12-01T14:30:46.007Z,9.50
2018-12-01T14:33:14.627Z,9.50
2018-12-01T14:35:43.205Z,9.50
2018-12-01T14:38:16.252Z,9.40
2018-12-01T14:40:51.583Z,9.40
2018-12-01T14:43:20.208Z,9.40
2018-12-01T14:45:49.778Z,9.30
2018-12-01T14:48:18.342Z,9.30
2018-12-01T14:50:48.828Z,9.30
2018-12-01T14:53:16.751Z,9.20
2018-12-01T14:55:45.386Z,9.20
2018-12-01T14:58:14.043Z,9.20
2018-12-01T15:00:42.653Z,9.20
2018-12-01T15:03:11.260Z,9.30
2018-12-01T15:05:41.028Z,9.20
2018-12-01T15:08:09.666Z,9.20
2018-12-01T15:10:38.292Z,9.20
2018-12-01T15:13:07.066Z,9.20
2018-12-01T15:15:35.711Z,9.10
2018-12-01T15:18:04.347Z,9.10
2018-12-01T15:20:33.352Z,9.10
2018-12-01T15:23:01.938Z,9.00
2018-12-01T15:25:30.926Z,8.90
2018-12-01T15:27:59.615Z,8.90
2018-12-01T15:30:29.111Z,8.80
2018-12-01T15:33:01.016Z,8.70
2018-12-01T15:35:29.616Z,8.60
2018-12-01T15:37:58.458Z,8.50
2018-12-01T15:40:27.113Z,8.60
2018-12-01T15:42:55.758Z,8.50
2018-12-01T15:45:24.595Z,8.50
2018-12-01T15:47:54.184Z,8.40
2018-12-01T15:50:22.654Z,8.40
2018-12-01T15:52:53.080Z,8.30
2018-12-01T15:55:22.675Z,8.30
2018-12-01T15:57:51.449Z,8.30
2018-12-01T16:00:28.629Z,8.30
2018-12-01T16:02:57.250Z,8.30
2018-12-01T16:05:25.859Z,8.30
2018-12-01T16:07:56.639Z,8.20
2018-12-01T16:10:25.628Z,8.20
2018-12-01T16:13:00.745Z,8.10
2018-12-01T16:15:31.215Z,8.10
2018-12-01T16:17:59.879Z,8.10
2018-12-01T16:20:28.473Z,8.10
2018-12-01T16:22:57.151Z,8.00
2018-12-01T16:25:26.275Z,8.00
2018-12-01T16:27:54.874Z,8.00
2018-12-01T16:30:31.638Z,8.00
2018-12-01T16:33:02.692Z,7.90
2018-12-01T16:35:31.342Z,7.80
2018-12-01T16:37:59.944Z,7.80
2018-12-01T16:40:32.028Z,7.80
2018-12-01T16:43:02.234Z,7.80
2018-12-01T16:45:30.833Z,7.80
2018-12-01T16:47:59.476Z,7.70
2018-12-01T16:50:28.107Z,7.70
2018-12-01T16:52:56.784Z,7.70
2018-12-01T16:55:25.428Z,7.70
2018-12-01T16:57:54.064Z,7.70
2018-12-01T17:00:22.728Z,7.70
2018-12-01T17:02:53.684Z,7.60
2018-12-01T17:05:24.452Z,7.60
2018-12-01T17:07:53.688Z,7.60
2018-12-01T17:10:22.699Z,7.60
2018-12-01T17:12:53.124Z,7.50
2018-12-01T17:15:22.283Z,7.60
2018-12-01T17:17:51.991Z,7.60
2018-12-01T17:20:20.752Z,7.60
2018-12-01T17:22:58.246Z,7.60
2018-12-01T17:25:26.920Z,7.60
2018-12-01T17:27:57.756Z,7.70
2018-12-01T17:30:31.308Z,7.70
2018-12-01T17:33:00.432Z,7.70
2018-12-01T17:35:30.886Z,7.70
2018-12-01T17:38:03.440Z,7.70
2018-12-01T17:40:45.996Z,7.70
2018-12-01T17:43:18.452Z,7.70
2018-12-01T17:45:47.070Z,7.70
2018-12-01T17:48:15.667Z,7.70
2018-12-01T17:50:44.311Z,7.70
2018-12-01T17:53:12.904Z,7.70
2018-12-01T17:55:41.501Z,7.70
2018-12-01T17:58:10.856Z,7.70
2018-12-01T18:00:40.384Z,7.60
2018-12-01T18:03:08.975Z,7.60
2018-12-01T18:05:40.915Z,7.60
2018-12-01T18:08:15.204Z,7.60
2018-12-01T18:10:44.236Z,7.60
2018-12-01T18:13:12.992Z,7.60
2018-12-01T18:15:41.604Z,7.60
2018-12-01T18:18:10.300Z,7.60
2018-12-01T18:20:38.928Z,7.50
2018-12-01T18:23:08.988Z,7.50
2018-12-01T18:25:41.232Z,7.50
2018-12-01T18:28:11.211Z,7.40
2018-12-01T18:30:40.880Z,7.40
2018-12-01T18:33:12.235Z,7.40
2018-12-01T18:35:41.359Z,7.40
2018-12-01T18:38:10.709Z,7.40
2018-12-01T18:40:39.408Z,7.50
2018-12-01T18:43:08.615Z,7.50
2018-12-01T18:45:38.364Z,7.50
2018-12-01T18:48:07.048Z,7.50
2018-12-01T18:50:35.626Z,7.50
2018-12-01T18:53:06.364Z,7.50
2018-12-01T18:55:36.242Z,7.50
2018-12-01T18:58:05.780Z,7.40
2018-12-01T19:00:38.497Z,7.40
2018-12-01T19:03:07.119Z,7.50
2018-12-01T19:05:35.728Z,7.40
2018-12-01T19:08:04.461Z,7.40
2018-12-01T19:10:33.095Z,7.40
2018-12-01T19:13:01.675Z,7.40
2018-12-01T19:15:30.276Z,7.40
2018-12-01T19:17:58.870Z,7.40
2018-12-01T19:20:27.508Z,7.40
2018-12-01T19:22:56.249Z,7.40
2018-12-01T19:25:24.864Z,7.40
2018-12-01T19:27:54.512Z,7.50
2018-12-01T19:30:23.380Z,7.40
2018-12-01T19:32:57.268Z,7.50
2018-12-01T19:35:25.905Z,7.50
2018-12-01T19:37:55.215Z,7.50
2018-12-01T19:40:32.720Z,7.50
2018-12-01T19:43:02.092Z,7.50
2018-12-01T19:45:30.675Z,7.50
2018-12-01T19:47:59.300Z,7.50
2018-12-01T19:50:33.475Z,7.50
2018-12-01T19:53:02.100Z,7.60
2018-12-01T19:55:32.583Z,7.60
2018-12-01T19:58:01.071Z,7.60
2018-12-01T20:00:30.427Z,7.60
2018-12-01T20:03:01.504Z,7.60
2018-12-01T20:05:30.133Z,7.60
2018-12-01T20:07:58.737Z,7.60
2018-12-01T20:10:37.924Z,7.70
2018-12-01T20:13:12.637Z,7.70
2018-12-01T20:15:43.343Z,7.70
2018-12-01T20:18:17.781Z,7.70
2018-12-01T20:20:46.484Z,7.70
2018-12-01T20:23:15.164Z,7.70
2018-12-01T20:25:44.528Z,7.70
2018-12-01T20:28:13.125Z,7.70
2018-12-01T20:30:41.800Z,7.70
2018-12-01T20:33:10.429Z,7.70
2018-12-01T20:35:42.997Z,7.70
2018-12-01T20:38:29.582Z,7.70
2018-12-01T20:40:58.166Z,7.70
2018-12-01T20:43:26.797Z,7.70
2018-12-01T20:45:55.442Z,7.80
2018-12-01T20:48:24.020Z,7.80
2018-12-01T20:50:52.603Z,7.90
2018-12-01T20:53:21.204Z,7.80
2018-12-01T20:55:53.161Z,7.90
2018-12-01T20:58:22.040Z,7.90
2018-12-01T21:00:50.603Z,7.90
2018-12-01T21:03:19.164Z,7.90
2018-12-01T21:05:47.753Z,8.00
2018-12-01T21:08:16.330Z,8.00
2018-12-01T21:10:57.541Z,8.00
2018-12-01T21:13:26.109Z,8.00
2018-12-01T21:15:54.707Z,8.00
2018-12-01T21:18:23.268Z,8.00
2018-12-01T21:20:51.851Z,8.10
2018-12-01T21:23:20.429Z,8.10
2018-12-01T21:25:48.975Z,8.10
2018-12-01T21:32:56.718Z,8.20
2018-12-01T21:35:41.524Z,8.20
2018-12-01T21:38:13.460Z,8.20
2018-12-01T21:40:42.689Z,8.20
2018-12-01T21:43:12.544Z,8.20
2018-12-01T21:45:41.115Z,8.20
2018-12-01T21:48:11.245Z,8.20
2018-12-01T21:50:41.915Z,8.20
2018-12-01T21:53:18.899Z,8.20
2018-12-01T21:55:47.488Z,8.30
2018-12-01T21:58:16.104Z,8.30
2018-12-01T22:00:46.417Z,8.30
2018-12-01T22:03:15.874Z,8.30
2018-12-01T22:06:03.306Z,8.40
2018-12-01T22:08:32.883Z,8.40
2018-12-01T22:11:01.472Z,8.40
2018-12-01T22:13:30.080Z,8.40
2018-12-01T22:15:58.731Z,8.40
2018-12-01T22:18:27.435Z,8.40
2018-12-01T22:20:56.003Z,8.40
2018-12-01T22:23:24.588Z,8.40
2018-12-01T22:25:53.295Z,8.40
2018-12-01T22:28:21.876Z,8.40
2018-12-01T22:30:51.764Z,8.40
2018-12-01T22:33:25.860Z,8.40
2018-12-01T22:35:54.628Z,8.50
2018-12-01T22:38:24.069Z,8.40
2018-12-01T22:40:59.583Z,8.50
2018-12-01T22:43:28.921Z,8.50
2018-12-01T22:45:57.556Z,8.50
2018-12-01T22:48:26.692Z,8.60
2018-12-01T22:50:55.249Z,8.60
2018-12-01T22:53:23.835Z,8.60
2018-12-01T22:55:52.453Z,8.60
2018-12-01T22:58:21.885Z,8.60
2018-12-01T23:00:51.842Z,8.70
2018-12-01T23:03:20.560Z,8.60
2018-12-01T23:05:49.157Z,8.70
2018-12-01T23:08:19.157Z,8.70
2018-12-01T23:10:47.740Z,8.70
2018-12-01T23:13:16.322Z,8.70
2018-12-01T23:15:44.925Z,8.80
2018-12-01T23:18:15.033Z,8.70
2018-12-01T23:20:44.843Z,8.80
2018-12-01T23:23:13.400Z,8.80
2018-12-01T23:25:42.059Z,8.70
2018-12-01T23:28:10.686Z,8.80
2018-12-01T23:30:40.376Z,8.80
2018-12-01T23:33:19.344Z,8.80
2018-12-01T23:35:47.952Z,8.80
2018-12-01T23:38:16.545Z,8.80
2018-12-01T23:40:45.212Z,8.80
2018-12-01T23:43:13.820Z,8.80
2018-12-01T23:45:43.669Z,8.80
2018-12-01T23:48:12.316Z,8.90
2018-12-01T23:50:42.588Z,8.90
2018-12-01T23:53:12.804Z,8.90
2018-12-01T23:55:41.379Z,8.90
2018-12-01T23:58:09.965Z,8.90
